Time;durP1;ratioP1;P1;durP2;ratioP2;P2;SDS_P1;SDS_P2;PMS_P1;PMS_P2;Temp;Humidity;BMP_temperature;BMP_pressure;BME280_temperature;BME280_humidity;BME280_pressure;Samples;Min_cycle;Max_cycle;Signal;HPM_P1;HPM_P2
2024/03/29 00:00:41;;;;;;;2.40;1.20;;;;;;;13.21;40.36;94738.72;5087693;28;20407;-80
2024/03/29 00:03:06;;;;;;;4.50;1.85;;;;;;;13.16;40.43;94744.81;5085309;28;20020;-82
2024/03/29 00:05:33;;;;;;;4.10;1.33;;;;;;;13.11;40.65;94737.13;5085432;28;20427;-79
2024/03/29 00:07:59;;;;;;;4.55;1.33;;;;;;;13.10;40.81;94766.72;5085844;28;20107;-79
2024/03/29 00:10:24;;;;;;;5.15;1.13;;;;;;;13.05;40.82;94764.56;5084526;28;20110;-79
2024/03/29 00:12:49;;;;;;;4.82;1.00;;;;;;;13.08;40.79;94771.94;5086152;28;20023;-79
2024/03/29 00:15:15;;;;;;;2.58;0.90;;;;;;;13.04;41.04;94771.31;5084947;28;20032;-79
2024/03/29 00:17:40;;;;;;;2.83;1.00;;;;;;;12.97;41.14;94771.59;5087455;28;20055;-79
2024/03/29 00:20:06;;;;;;;1.90;0.70;;;;;;;12.90;41.22;94767.16;5085235;28;20432;-80
2024/03/29 00:22:31;;;;;;;1.58;1.00;;;;;;;12.90;41.22;94778.19;5087190;28;20027;-80
2024/03/29 00:24:57;;;;;;;4.90;1.10;;;;;;;12.92;41.29;94775.72;5085218;28;20550;-80
2024/03/29 00:27:25;;;;;;;1.98;0.90;;;;;;;12.86;41.47;94777.56;5085958;28;20035;-80
2024/03/29 00:29:52;;;;;;;2.65;0.95;;;;;;;12.95;41.19;94788.59;5085782;28;20421;-78
2024/03/29 00:32:18;;;;;;;2.58;1.00;;;;;;;12.97;41.33;94779.88;5067318;28;20074;-80
2024/03/29 00:34:45;;;;;;;2.22;0.95;;;;;;;12.96;41.53;94775.56;5086035;28;20398;-81
2024/03/29 00:37:10;;;;;;;3.83;0.90;;;;;;;13.01;41.14;94778.50;5083826;28;20028;-78
2024/03/29 00:39:36;;;;;;;2.10;1.10;;;;;;;13.03;41.20;94781.59;5068933;28;20028;-78
2024/03/29 00:42:02;;;;;;;2.60;0.80;;;;;;;12.91;41.29;94778.94;5084623;28;20093;-77
2024/03/29 00:44:27;;;;;;;2.53;1.17;;;;;;;12.91;41.44;94788.00;5086543;28;20030;-80
2024/03/29 00:46:53;;;;;;;2.20;0.88;;;;;;;12.81;41.39;94778.16;5085017;28;20020;-79
2024/03/29 00:49:19;;;;;;;2.92;0.80;;;;;;;12.81;41.61;94786.41;5084059;28;20120;-79
2024/03/29 00:51:44;;;;;;;5.13;1.00;;;;;;;12.80;41.45;94773.09;5087579;28;20429;-80
2024/03/29 00:54:09;;;;;;;3.42;0.85;;;;;;;12.80;41.40;94782.13;5083722;28;20023;-80
2024/03/29 00:56:35;;;;;;;3.20;0.65;;;;;;;12.73;41.55;94790.66;5085369;28;20525;-79
2024/03/29 00:59:00;;;;;;;4.63;0.90;;;;;;;12.63;41.51;94789.88;5085737;28;20402;-80
2024/03/29 01:01:25;;;;;;;2.67;0.95;;;;;;;12.55;41.81;94796.88;5086135;28;20038;-79
2024/03/29 01:03:52;;;;;;;2.40;0.85;;;;;;;12.61;41.72;94794.28;5084314;28;20089;-80
2024/03/29 01:06:17;;;;;;;5.07;1.73;;;;;;;12.60;41.50;94798.28;5084076;28;20024;-79
2024/03/29 01:08:43;;;;;;;1.33;0.52;;;;;;;12.48;41.62;94791.66;5086492;28;20497;-79
2024/03/29 01:11:08;;;;;;;2.00;0.80;;;;;;;12.63;41.56;94791.88;5083385;28;20138;-79
2024/03/29 01:13:33;;;;;;;3.55;0.70;;;;;;;12.51;41.48;94781.72;5086319;28;20108;-79
2024/03/29 01:15:59;;;;;;;2.33;0.82;;;;;;;12.56;41.58;94792.91;5084146;28;20148;-79
2024/03/29 01:18:24;;;;;;;1.55;0.60;;;;;;;12.56;41.36;94790.16;5084632;28;20126;-79
2024/03/29 01:20:49;;;;;;;3.70;0.77;;;;;;;12.49;41.52;94779.41;5083764;28;20024;-79
2024/03/29 01:23:15;;;;;;;2.33;0.80;;;;;;;12.45;41.83;94771.28;5088689;28;20509;-79
2024/03/29 01:25:40;;;;;;;2.95;0.70;;;;;;;12.39;41.93;94792.38;5097484;28;20032;-80
2024/03/29 01:28:06;;;;;;;1.42;0.52;;;;;;;12.37;42.00;94783.78;5085402;28;20103;-80
2024/03/29 01:30:31;;;;;;;1.92;0.50;;;;;;;12.33;42.11;94785.94;5084238;28;20028;-79
2024/03/29 01:32:57;;;;;;;2.33;0.65;;;;;;;12.26;42.34;94779.91;5082544;28;20024;-79
2024/03/29 01:35:22;;;;;;;2.60;0.70;;;;;;;12.28;42.26;94792.03;5084628;28;20078;-81
2024/03/29 01:37:47;;;;;;;2.53;0.70;;;;;;;12.24;42.39;94791.38;5084390;28;20111;-79
2024/03/29 01:40:13;;;;;;;2.22;0.68;;;;;;;12.28;42.19;94785.75;5085888;28;20518;-79
2024/03/29 01:42:38;;;;;;;2.45;1.17;;;;;;;12.26;42.31;94788.94;5084859;28;20032;-76
2024/03/29 01:45:04;;;;;;;2.05;0.65;;;;;;;12.29;42.49;94801.06;5084861;28;20475;-78
2024/03/29 01:47:30;;;;;;;1.40;0.70;;;;;;;12.18;42.60;94784.91;5085634;28;20076;-79
2024/03/29 01:49:55;;;;;;;3.72;1.08;;;;;;;12.20;42.66;94810.03;5065840;28;20658;-80
2024/03/29 01:52:21;;;;;;;0.88;0.70;;;;;;;12.18;42.68;94799.47;5067283;28;20032;-80
2024/03/29 01:54:46;;;;;;;3.55;0.70;;;;;;;12.12;42.56;94795.75;5082498;28;20020;-80
2024/03/29 01:57:13;;;;;;;3.33;0.82;;;;;;;12.18;42.66;94809.72;5085754;28;20027;-78
2024/03/29 01:59:40;;;;;;;2.42;0.63;;;;;;;12.07;42.88;94792.81;5065782;28;20572;-78
2024/03/29 02:02:06;;;;;;;3.58;0.77;;;;;;;12.03;43.13;94817.72;5083635;28;20470;-78
2024/03/29 02:04:31;;;;;;;3.28;0.60;;;;;;;11.96;43.11;94820.75;5083778;28;20023;-78
2024/03/29 02:06:56;;;;;;;1.58;0.65;;;;;;;11.97;43.21;94825.03;5083112;28;20549;-80
2024/03/29 02:09:22;;;;;;;2.08;0.80;;;;;;;11.95;43.31;94836.50;5083856;28;20115;-78
2024/03/29 02:11:47;;;;;;;4.22;0.95;;;;;;;11.91;43.55;94840.59;5082145;28;20028;-79
2024/03/29 02:14:12;;;;;;;5.20;0.80;;;;;;;11.91;43.71;94848.84;5084331;28;20032;-79
2024/03/29 02:16:38;;;;;;;5.00;0.77;;;;;;;11.89;43.65;94851.31;5083225;28;20111;-79
2024/03/29 02:19:03;;;;;;;2.40;0.75;;;;;;;11.84;43.99;94863.66;5085070;28;20048;-79
2024/03/29 02:21:30;;;;;;;5.63;0.70;;;;;;;11.83;43.83;94855.84;5084307;28;20028;-79
2024/03/29 02:24:08;;;;;;;3.97;0.73;;;;;;;11.82;43.87;94868.84;5083088;28;20020;-79
2024/03/29 02:26:36;;;;;;;1.98;0.57;;;;;;;11.83;44.04;94881.41;5083665;28;20085;-79
2024/03/29 02:29:02;;;;;;;2.60;0.70;;;;;;;11.82;43.91;94890.88;5083587;28;20028;-79
2024/03/29 02:31:28;;;;;;;1.13;0.73;;;;;;;11.82;43.92;94885.38;5083935;28;20055;-78
2024/03/29 02:33:53;;;;;;;6.22;1.02;;;;;;;11.84;44.00;94904.97;5085092;28;20056;-79
2024/03/29 02:36:18;;;;;;;3.38;0.68;;;;;;;11.84;43.93;94899.47;5097566;28;20073;-79
2024/03/29 02:38:44;;;;;;;2.67;0.73;;;;;;;11.82;44.03;94907.41;5083134;28;20017;-79
2024/03/29 02:41:10;;;;;;;1.27;0.68;;;;;;;11.84;43.98;94910.47;5084261;28;20100;-78
2024/03/29 02:43:35;;;;;;;4.32;0.90;;;;;;;11.81;44.04;94916.88;5085912;28;20028;-78
2024/03/29 02:46:00;;;;;;;2.25;0.70;;;;;;;11.80;43.99;94925.56;5086458;28;20175;-78
2024/03/29 02:48:26;;;;;;;3.10;0.68;;;;;;;11.80;44.20;94923.56;5089213;28;20047;-78
2024/03/29 02:50:51;;;;;;;4.53;1.20;;;;;;;11.79;44.20;94930.28;5087371;28;20035;-78
2024/03/29 02:53:16;;;;;;;3.25;0.82;;;;;;;11.74;44.16;94928.09;5087776;28;20028;-80
2024/03/29 02:55:45;;;;;;;2.70;0.90;;;;;;;11.73;44.10;94929.31;5087503;28;20112;-80
2024/03/29 02:58:10;;;;;;;3.40;1.10;;;;;;;11.76;44.61;94924.91;5088552;28;20020;-79
2024/03/29 03:00:35;;;;;;;2.38;0.68;;;;;;;11.65;44.93;94933.53;5087074;28;20020;-80
2024/03/29 03:03:01;;;;;;;2.28;0.77;;;;;;;11.60;44.83;94928.59;5087561;28;20036;-79
2024/03/29 03:05:26;;;;;;;3.05;1.10;;;;;;;11.56;45.13;94938.94;5088489;28;20348;-79
2024/03/29 03:13:20;;;;;;;4.85;1.20;;;;;;;11.38;45.45;94940.28;5087292;28;20532;-79
2024/03/29 03:15:45;;;;;;;1.80;1.10;;;;;;;11.37;45.55;94952.50;5085389;28;20028;-78
2024/03/29 03:18:10;;;;;;;5.47;1.38;;;;;;;11.41;45.88;94953.16;5088305;28;20076;-79
2024/03/29 03:20:37;;;;;;;3.85;1.30;;;;;;;11.38;45.58;94943.03;5086642;28;20139;-80
2024/03/29 03:23:03;;;;;;;3.85;1.27;;;;;;;11.44;45.27;94959.75;5087255;28;20020;-79
2024/03/29 03:25:29;;;;;;;3.47;1.17;;;;;;;11.46;45.41;94962.06;5084932;28;20161;-79
2024/03/29 03:27:54;;;;;;;2.67;1.10;;;;;;;11.54;45.27;94968.91;5088526;28;20030;-79
2024/03/29 03:30:19;;;;;;;2.63;1.13;;;;;;;11.60;45.08;94958.88;5068955;28;20119;-80
2024/03/29 03:32:45;;;;;;;3.42;1.17;;;;;;;11.56;44.85;94960.97;5087309;28;20103;-79
2024/03/29 03:35:10;;;;;;;3.55;1.02;;;;;;;11.55;45.11;94965.69;5086602;28;20111;-79
2024/03/29 03:37:35;;;;;;;3.63;1.15;;;;;;;11.59;45.12;94973.84;5086630;28;20460;-79
2024/03/29 03:40:01;;;;;;;3.03;1.25;;;;;;;11.52;45.35;94963.03;5088382;28;20032;-80
2024/03/29 03:42:26;;;;;;;1.83;0.90;;;;;;;11.63;44.80;94980.75;5088322;28;20055;-80
2024/03/29 03:44:51;;;;;;;4.43;1.02;;;;;;;11.66;44.77;94979.91;5118804;28;20061;-80
2024/03/29 03:47:17;;;;;;;3.75;0.95;;;;;;;11.64;44.77;94984.28;5099651;28;20031;-78
2024/03/29 03:49:42;;;;;;;3.00;1.15;;;;;;;11.66;44.83;95003.91;5093093;28;20440;-79
2024/03/29 03:52:08;;;;;;;2.97;0.77;;;;;;;11.65;44.78;95003.13;5091256;28;20100;-79
2024/03/29 03:54:34;;;;;;;3.60;1.27;;;;;;;11.70;44.79;95004.56;5098894;28;20055;-80
2024/03/29 03:56:59;;;;;;;3.20;1.05;;;;;;;11.63;44.70;95000.03;5096906;28;20032;-80
2024/03/29 03:59:25;;;;;;;3.35;1.08;;;;;;;11.70;44.63;95015.59;5105731;28;20442;-79
2024/03/29 04:01:51;;;;;;;3.88;1.15;;;;;;;11.69;44.89;95012.03;5099264;28;20111;-79
2024/03/29 04:04:17;;;;;;;5.35;1.45;;;;;;;11.57;44.99;95014.81;5087125;28;20063;-80
2024/03/29 04:06:43;;;;;;;4.20;1.17;;;;;;;11.62;45.21;95015.03;5095366;28;20678;-78
2024/03/29 04:09:08;;;;;;;5.10;1.20;;;;;;;11.55;45.32;95011.72;5096590;28;20108;-80
2024/03/29 04:11:34;;;;;;;2.85;0.88;;;;;;;11.47;45.11;95019.44;5105608;28;20032;-78
2024/03/29 04:13:59;;;;;;;5.25;1.10;;;;;;;11.46;45.60;95020.63;5095708;28;20032;-78
2024/03/29 04:16:25;;;;;;;2.95;1.00;;;;;;;11.35;45.82;95020.97;5100095;28;20088;-79
2024/03/29 04:18:50;;;;;;;2.60;1.20;;;;;;;11.33;45.77;95028.91;5104377;28;20125;-79
2024/03/29 04:21:15;;;;;;;4.38;1.40;;;;;;;11.40;45.69;95036.16;5094349;28;20035;-78
2024/03/29 04:23:41;;;;;;;6.75;1.30;;;;;;;11.39;45.67;95038.16;5106567;28;20047;-78
2024/03/29 04:26:06;;;;;;;3.63;1.30;;;;;;;11.41;45.69;95043.19;5090261;28;20448;-78
2024/03/29 04:28:31;;;;;;;2.67;1.15;;;;;;;11.46;45.66;95048.16;5068844;28;20540;-78
2024/03/29 04:30:59;;;;;;;2.88;1.15;;;;;;;11.36;45.56;95038.28;5086970;28;20027;-78
2024/03/29 04:33:24;;;;;;;6.13;1.23;;;;;;;11.48;45.50;95070.53;5085344;28;20050;-78
2024/03/29 04:35:58;;;;;;;6.05;1.48;;;;;;;11.48;45.81;95065.03;5085361;28;20547;-78
2024/03/29 04:38:24;;;;;;;4.70;1.48;;;;;;;11.50;45.94;95064.59;5101005;28;20483;-79
2024/03/29 04:40:51;;;;;;;4.10;1.38;;;;;;;11.55;45.63;95075.06;5107756;27;20034;-79
2024/03/29 04:43:16;;;;;;;4.65;1.70;;;;;;;11.52;45.63;95067.66;5104412;28;20035;-79
2024/03/29 04:45:44;;;;;;;8.48;1.80;;;;;;;11.55;45.71;95086.06;5096327;28;20379;-78
2024/03/29 04:48:09;;;;;;;4.35;1.55;;;;;;;11.56;45.52;95088.38;5099228;28;20106;-80
2024/03/29 04:50:35;;;;;;;4.30;1.65;;;;;;;11.60;45.54;95088.28;5087374;28;20053;-80
2024/03/29 04:53:00;;;;;;;7.43;1.63;;;;;;;11.62;45.40;95091.34;5098515;28;20047;-78
2024/03/29 04:55:26;;;;;;;7.60;1.73;;;;;;;11.63;45.56;95092.88;5096431;28;20553;-79
2024/03/29 04:57:51;;;;;;;10.25;1.92;;;;;;;11.57;45.51;95092.66;5104033;28;20489;-79
2024/03/29 05:00:16;;;;;;;10.98;1.80;;;;;;;11.62;45.20;95092.13;5105310;28;20133;-79
2024/03/29 05:02:42;;;;;;;6.85;1.73;;;;;;;11.64;45.02;95100.72;5106975;28;20042;-79
2024/03/29 05:05:07;;;;;;;6.90;1.40;;;;;;;11.68;45.28;95097.84;5104071;28;20031;-79
2024/03/29 05:07:33;;;;;;;4.97;1.70;;;;;;;11.66;45.11;95097.53;5107035;28;20051;-78
2024/03/29 05:09:59;;;;;;;4.18;1.48;;;;;;;11.72;45.01;95106.78;5093792;28;20753;-78
2024/03/29 05:12:24;;;;;;;8.38;2.10;;;;;;;11.78;45.10;95104.25;5085211;28;20031;-77
2024/03/29 05:14:50;;;;;;;12.52;2.67;;;;;;;11.82;45.26;95113.97;5084539;28;20028;-76
2024/03/29 05:17:16;;;;;;;11.13;2.10;;;;;;;11.81;45.31;95117.13;5084448;28;20173;-76
2024/03/29 05:19:43;;;;;;;12.05;2.75;;;;;;;11.87;45.34;95123.66;5086272;28;20032;-77
2024/03/29 05:22:08;;;;;;;13.55;2.78;;;;;;;11.84;45.37;95117.06;5083137;28;20028;-77
2024/03/29 05:24:33;;;;;;;5.25;2.00;;;;;;;11.91;45.24;95130.59;5084457;28;20455;-77
2024/03/29 05:26:59;;;;;;;12.57;3.25;;;;;;;11.92;45.33;95134.91;5085362;28;20030;-76
2024/03/29 05:29:24;;;;;;;12.65;3.95;;;;;;;12.01;45.30;95142.53;5085257;28;20120;-78
2024/03/29 05:31:50;;;;;;;21.85;5.93;;;;;;;12.03;46.14;95133.81;5084391;28;20020;-78
2024/03/29 05:34:15;;;;;;;17.48;6.25;;;;;;;12.10;46.34;95150.09;5084620;28;20442;-77
2024/03/29 05:36:40;;;;;;;19.95;6.20;;;;;;;12.12;46.67;95147.69;5086286;28;20461;-78
2024/03/29 05:39:06;;;;;;;23.92;7.10;;;;;;;12.18;46.74;95149.47;5082919;28;20028;-76
2024/03/29 05:41:31;;;;;;;20.02;6.50;;;;;;;12.21;46.76;95147.78;5099775;28;20043;-77
2024/03/29 05:43:58;;;;;;;17.50;7.35;;;;;;;12.17;46.70;95130.63;5090306;28;20640;-77
2024/03/29 05:46:23;;;;;;;25.48;6.90;;;;;;;12.30;46.91;95144.38;5104520;28;20486;-78
2024/03/29 05:48:48;;;;;;;18.38;7.32;;;;;;;12.31;46.67;95146.69;5097773;28;20074;-78
2024/03/29 05:51:14;;;;;;;14.88;5.95;;;;;;;12.34;46.50;95148.56;5084955;28;20522;-79
2024/03/29 05:53:40;;;;;;;19.45;7.32;;;;;;;12.42;46.55;95149.88;5085286;28;20123;-77
2024/03/29 05:56:06;;;;;;;19.70;7.90;;;;;;;12.47;46.54;95143.78;5082519;28;20445;-78
2024/03/29 05:58:33;;;;;;;19.98;7.60;;;;;;;12.51;46.11;95145.69;5096909;28;20027;-77
2024/03/29 06:00:58;;;;;;;21.95;7.35;;;;;;;12.56;46.02;95150.59;5082554;28;20049;-76
2024/03/29 06:03:24;;;;;;;15.02;6.32;;;;;;;12.60;45.73;95156.78;5091947;28;20395;-77
2024/03/29 06:05:49;;;;;;;20.52;6.65;;;;;;;12.65;45.69;95158.97;5095966;28;20043;-77
2024/03/29 06:08:15;;;;;;;11.23;5.10;;;;;;;12.74;45.54;95164.59;5110485;28;20074;-77
2024/03/29 06:10:40;;;;;;;8.65;4.45;;;;;;;12.78;45.29;95156.94;5083389;28;20032;-77
2024/03/29 06:13:17;;;;;;;8.27;2.80;;;;;;;12.92;44.68;95152.97;5083957;28;20529;-76
2024/03/29 06:18:27;;;;;;;4.28;1.75;;;;;;;13.08;44.26;95160.31;5082253;28;20047;-77
2024/03/29 06:20:52;;;;;;;6.30;1.77;;;;;;;13.21;43.90;95161.81;5083588;28;20027;-78
2024/03/29 06:23:18;;;;;;;11.50;1.70;;;;;;;13.28;43.58;95160.78;5099883;28;20024;-78
2024/03/29 06:25:44;;;;;;;4.80;1.35;;;;;;;13.35;43.28;95165.28;5092983;28;20039;-77
2024/03/29 06:28:10;;;;;;;4.68;1.35;;;;;;;13.51;43.10;95170.59;5104447;28;20023;-77
2024/03/29 06:30:35;;;;;;;2.15;1.05;;;;;;;13.68;42.43;95166.41;5088174;28;20152;-77
2024/03/29 06:33:03;;;;;;;4.03;0.90;;;;;;;13.79;42.35;95164.03;5085802;28;20028;-76
2024/03/29 06:35:28;;;;;;;2.60;1.15;;;;;;;13.84;42.16;95164.66;5083843;28;20024;-77
2024/03/29 06:37:54;;;;;;;2.60;0.80;;;;;;;13.88;42.14;95171.59;5085233;28;20491;-77
2024/03/29 06:40:19;;;;;;;4.22;1.10;;;;;;;14.01;42.12;95175.03;5082773;28;20111;-77
2024/03/29 06:42:44;;;;;;;3.63;0.88;;;;;;;14.16;42.21;95166.19;5090433;28;20024;-78
2024/03/29 06:45:10;;;;;;;3.70;1.05;;;;;;;14.31;42.13;95176.25;5094585;28;20019;-78
2024/03/29 06:47:35;;;;;;;1.60;1.38;;;;;;;14.43;41.98;95179.34;5102259;28;20109;-77
2024/03/29 06:50:01;;;;;;;3.78;1.10;;;;;;;14.49;41.68;95178.31;5089073;28;20020;-77
2024/03/29 06:52:26;;;;;;;2.72;1.08;;;;;;;14.57;41.75;95167.75;5083240;28;20059;-77
2024/03/29 06:54:51;;;;;;;3.05;0.77;;;;;;;14.79;40.60;95170.41;5084823;28;20064;-79
2024/03/29 06:57:20;;;;;;;5.55;1.30;;;;;;;14.83;40.80;95179.31;5083819;28;20121;-80
2024/03/29 06:59:46;;;;;;;4.93;0.80;;;;;;;14.94;40.36;95187.97;5084138;28;20032;-80
2024/03/29 07:02:12;;;;;;;4.25;0.98;;;;;;;14.95;39.94;95191.50;5098902;28;20457;-80
2024/03/29 07:04:37;;;;;;;5.13;1.05;;;;;;;14.97;40.19;95186.28;5094396;28;20020;-73
2024/03/29 07:07:03;;;;;;;4.43;0.93;;;;;;;15.06;39.89;95175.97;5095412;28;20027;-77
2024/03/29 07:09:29;;;;;;;2.38;0.90;;;;;;;15.28;38.91;95192.44;5091377;28;20524;-77
2024/03/29 07:11:54;;;;;;;3.80;0.80;;;;;;;15.40;38.55;95199.06;5101515;28;20110;-78
2024/03/29 07:14:20;;;;;;;3.45;0.95;;;;;;;15.42;38.14;95196.59;5099155;28;20440;-77
2024/03/29 07:16:46;;;;;;;3.55;1.00;;;;;;;15.49;38.47;95195.53;5066709;28;20067;-78
2024/03/29 07:19:16;;;;;;;2.80;1.00;;;;;;;15.57;38.26;95197.50;5090674;28;20048;-77
2024/03/29 07:21:48;;;;;;;3.90;0.85;;;;;;;15.71;38.19;95185.03;5084450;28;20028;-77
2024/03/29 07:24:13;;;;;;;3.95;0.80;;;;;;;15.73;38.13;95192.91;5083439;28;20177;-78
2024/03/29 07:26:39;;;;;;;3.63;1.10;;;;;;;15.75;38.57;95193.97;5086652;28;20446;-76
2024/03/29 07:29:06;;;;;;;7.20;1.80;;;;;;;15.97;38.07;95202.09;5102362;28;20026;-76
2024/03/29 07:31:32;;;;;;;3.55;1.20;;;;;;;16.02;38.35;95198.72;5107280;28;20020;-77
2024/03/29 07:33:57;;;;;;;2.15;1.20;;;;;;;16.07;38.08;95195.31;5107210;28;20027;-78
2024/03/29 07:36:25;;;;;;;3.47;1.00;;;;;;;16.18;37.77;95194.81;5106234;28;20469;-77
2024/03/29 07:38:51;;;;;;;4.70;0.90;;;;;;;16.26;37.70;95198.78;5106405;28;20035;-78
2024/03/29 07:41:16;;;;;;;3.90;2.00;;;;;;;16.31;37.60;95195.38;5107802;28;20429;-79
2024/03/29 07:43:53;;;;;;;2.70;0.85;;;;;;;16.49;37.33;95191.75;5103228;28;20107;-78
2024/03/29 07:46:18;;;;;;;7.18;1.13;;;;;;;16.62;36.62;95185.97;5107558;28;20452;-78
2024/03/29 07:48:44;;;;;;;6.65;0.93;;;;;;;16.72;36.32;95191.06;5106260;28;20503;-77
2024/03/29 07:51:09;;;;;;;3.75;0.95;;;;;;;16.82;35.75;95185.47;5105605;28;20020;-77
2024/03/29 07:53:34;;;;;;;3.38;1.05;;;;;;;16.99;35.20;95181.78;5086999;28;20572;-78
2024/03/29 07:56:01;;;;;;;4.28;1.35;;;;;;;17.10;35.51;95192.38;5085465;28;20016;-78
2024/03/29 07:58:26;;;;;;;2.75;0.98;;;;;;;17.13;35.93;95188.63;5086176;28;20024;-78
2024/03/29 08:00:53;;;;;;;3.92;1.13;;;;;;;17.29;35.93;95181.13;5086227;28;20411;-77
2024/03/29 08:03:18;;;;;;;5.30;1.60;;;;;;;17.42;35.71;95198.31;5092965;28;20015;-77
2024/03/29 08:05:56;;;;;;;8.23;2.35;;;;;;;17.52;35.87;95197.75;5106004;28;20063;-77
2024/03/29 08:08:22;;;;;;;2.63;0.80;;;;;;;17.74;34.86;95189.09;5108157;27;20055;-77
2024/03/29 08:10:47;;;;;;;2.35;1.00;;;;;;;17.88;34.85;95184.03;5105225;28;20046;-77
2024/03/29 08:13:15;;;;;;;3.20;1.10;;;;;;;17.95;34.97;95181.66;5106405;28;20028;-78
2024/03/29 08:15:41;;;;;;;5.25;1.60;;;;;;;18.09;34.61;95177.31;5107109;28;20497;-78
2024/03/29 08:18:06;;;;;;;3.38;1.10;;;;;;;18.18;34.79;95176.44;5105102;28;20074;-75
2024/03/29 08:20:32;;;;;;;2.25;0.70;;;;;;;18.39;33.79;95178.03;5107923;28;20040;-77
2024/03/29 08:22:59;;;;;;;3.88;0.95;;;;;;;18.49;34.28;95173.91;5106241;28;20027;-77
2024/03/29 08:25:27;;;;;;;3.30;0.80;;;;;;;18.56;33.95;95165.16;5106669;28;20024;-78
2024/03/29 08:27:58;;;;;;;3.88;0.90;;;;;;;18.83;33.33;95166.06;5104949;28;20425;-79
2024/03/29 08:30:28;;;;;;;3.90;0.93;;;;;;;19.06;32.49;95167.13;5107462;28;20038;-77
2024/03/29 08:32:54;;;;;;;4.93;0.82;;;;;;;19.23;32.42;95159.75;5116838;28;20020;-79
2024/03/29 08:35:20;;;;;;;2.30;1.08;;;;;;;19.39;32.30;95160.44;5106202;28;20042;-82
2024/03/29 08:37:45;;;;;;;5.18;1.40;;;;;;;19.67;32.36;95160.75;5107075;28;20027;-79
2024/03/29 08:40:11;;;;;;;6.03;1.20;;;;;;;19.88;32.10;95151.84;5091305;28;20492;-78
2024/03/29 08:42:37;;;;;;;1.67;0.90;;;;;;;20.16;30.95;95157.66;5085808;28;20039;-77
2024/03/29 08:45:05;;;;;;;3.58;0.98;;;;;;;20.45;30.92;95155.09;5078148;28;20528;-76
2024/03/29 08:47:31;;;;;;;6.40;1.40;;;;;;;20.71;30.78;95155.06;5099012;28;20074;-77
2024/03/29 08:49:56;;;;;;;3.38;1.38;;;;;;;20.95;30.63;95152.66;5106048;28;20055;-78
2024/03/29 08:52:22;;;;;;;5.05;1.60;;;;;;;21.17;30.34;95149.22;5085899;28;20041;-76
2024/03/29 08:54:47;;;;;;;5.63;1.10;;;;;;;21.37;29.78;95146.25;5086303;28;20024;-76
2024/03/29 08:57:13;;;;;;;4.78;1.10;;;;;;;21.73;28.95;95141.00;5083630;28;20047;-77
2024/03/29 08:59:38;;;;;;;6.07;1.75;;;;;;;22.00;28.24;95134.69;5086885;28;20040;-76
2024/03/29 09:02:06;;;;;;;2.80;0.90;;;;;;;22.19;28.12;95134.22;5084604;28;20430;-77
2024/03/29 09:04:32;;;;;;;2.55;0.70;;;;;;;22.45;27.73;95134.72;5106356;28;20027;-75
2024/03/29 09:06:57;;;;;;;5.18;1.08;;;;;;;22.78;27.29;95128.31;5104438;28;20415;-76
2024/03/29 09:09:23;;;;;;;5.03;1.15;;;;;;;23.17;26.51;95123.88;5104417;28;20077;-76
2024/03/29 09:11:48;;;;;;;2.53;0.70;;;;;;;23.48;25.66;95128.34;5082670;28;20060;-77
2024/03/29 09:14:14;;;;;;;4.35;1.17;;;;;;;23.74;25.07;95120.34;5083590;28;20074;-76
2024/03/29 09:16:40;;;;;;;4.38;0.90;;;;;;;24.04;25.24;95123.19;5087746;28;20016;-76
2024/03/29 09:19:05;;;;;;;4.93;1.10;;;;;;;24.40;24.09;95117.56;5082656;28;20040;-77
2024/03/29 09:21:31;;;;;;;2.72;0.68;;;;;;;24.59;23.99;95106.41;5086458;28;20032;-78
2024/03/29 09:23:56;;;;;;;2.38;1.15;;;;;;;24.88;23.54;95121.69;5100215;28;20020;-76
2024/03/29 09:26:21;;;;;;;5.85;0.95;;;;;;;25.08;23.31;95115.63;5106253;28;20417;-77
2024/03/29 09:28:47;;;;;;;4.05;1.20;;;;;;;25.41;22.91;95102.44;5105378;28;20024;-75
2024/03/29 09:31:12;;;;;;;2.53;0.80;;;;;;;25.69;21.44;95090.78;5103884;28;20421;-76
2024/03/29 09:33:37;;;;;;;6.13;1.35;;;;;;;25.88;20.88;95082.38;5104927;28;20058;-76
2024/03/29 09:36:03;;;;;;;5.70;1.25;;;;;;;26.16;21.13;95079.88;5089231;28;20405;-77
2024/03/29 09:38:28;;;;;;;5.07;2.05;;;;;;;26.31;20.00;95082.19;5086161;28;20035;-77
2024/03/29 09:41:15;;;;;;;7.15;2.20;;;;;;;26.60;19.86;95076.84;5082530;28;20035;-76
2024/03/29 09:43:45;;;;;;;6.50;2.55;;;;;;;26.65;19.72;95076.75;5084473;28;20594;-76
2024/03/29 09:46:12;;;;;;;4.93;1.40;;;;;;;26.84;20.28;95075.88;5067532;28;20108;-77
2024/03/29 09:48:39;;;;;;;5.47;1.30;;;;;;;27.19;19.88;95067.03;5077482;28;20035;-77
2024/03/29 09:51:06;;;;;;;5.65;1.30;;;;;;;27.47;19.31;95065.66;5067738;28;20024;-77
2024/03/29 09:53:33;;;;;;;5.28;1.40;;;;;;;27.71;19.59;95064.66;5083213;28;20035;-77
2024/03/29 09:55:59;;;;;;;5.20;1.85;;;;;;;28.02;19.49;95066.47;5084388;28;20019;-77
2024/03/29 09:58:24;;;;;;;5.78;1.42;;;;;;;28.32;19.48;95056.78;5086929;28;20038;-78
2024/03/29 10:00:50;;;;;;;3.22;0.82;;;;;;;28.53;19.27;95057.53;5105751;28;20027;-77
2024/03/29 10:03:19;;;;;;;4.15;1.02;;;;;;;28.89;19.57;95061.72;5102144;28;20487;-77
2024/03/29 10:05:45;;;;;;;4.00;1.20;;;;;;;29.33;18.90;95054.09;5094317;28;20498;-77
2024/03/29 10:08:11;;;;;;;2.95;0.90;;;;;;;29.70;18.29;95051.97;5087529;28;20024;-77
2024/03/29 10:10:37;;;;;;;3.63;1.40;;;;;;;29.97;18.05;95050.34;5089507;28;20451;-77
2024/03/29 10:13:02;;;;;;;5.82;1.63;;;;;;;30.38;17.83;95049.28;5091157;28;20039;-77
2024/03/29 10:15:29;;;;;;;11.57;1.67;;;;;;;30.63;17.96;95045.91;5098874;28;20015;-77
2024/03/29 10:17:54;;;;;;;6.10;1.75;;;;;;;31.06;17.20;95046.97;5083263;28;20063;-77
2024/03/29 10:20:20;;;;;;;4.05;1.60;;;;;;;31.70;16.63;95039.94;5100312;28;20059;-78
2024/03/29 10:22:46;;;;;;;5.13;2.00;;;;;;;32.35;16.08;95051.34;5104989;28;20130;-77
2024/03/29 10:25:15;;;;;;;5.82;1.90;;;;;;;33.17;15.33;95049.69;5103752;28;20494;-77
2024/03/29 10:27:40;;;;;;;2.92;1.23;;;;;;;33.79;15.18;95054.09;5102339;28;20127;-77
2024/03/29 10:30:10;;;;;;;5.93;2.40;;;;;;;34.57;14.33;95051.69;5104206;28;20429;-79
2024/03/29 10:32:42;;;;;;;4.35;1.95;;;;;;;35.01;14.16;95048.66;5102647;28;20047;-79
2024/03/29 10:35:09;;;;;;;4.90;1.30;;;;;;;35.85;13.88;95058.47;5105566;28;20027;-79
2024/03/29 10:37:38;;;;;;;4.78;1.55;;;;;;;36.68;12.95;95046.50;5102808;28;20059;-78
2024/03/29 10:40:11;;;;;;;8.25;2.85;;;;;;;37.45;12.09;95048.16;5103180;28;20031;-77
2024/03/29 10:42:37;;;;;;;6.38;2.97;;;;;;;38.01;11.86;95041.03;5105301;28;20035;-78
2024/03/29 10:45:05;;;;;;;5.40;1.67;;;;;;;38.65;11.25;95042.88;5103844;28;20023;-77
2024/03/29 10:47:32;;;;;;;3.85;1.48;;;;;;;39.26;11.03;95041.59;5106067;28;20079;-78
2024/03/29 10:49:58;;;;;;;6.18;1.60;;;;;;;39.85;10.95;95032.03;5101998;28;20514;-78
2024/03/29 10:52:25;;;;;;;4.88;1.73;;;;;;;40.29;10.56;95030.91;5104043;28;20028;-78
2024/03/29 10:54:50;;;;;;;7.40;1.90;;;;;;;40.56;10.30;95036.00;5101211;28;20032;-78
2024/03/29 10:57:28;;;;;;;2.25;0.80;;;;;;;41.04;9.66;95031.34;5102047;28;20122;-78
2024/03/29 11:00:05;;;;;;;5.63;1.00;;;;;;;41.46;9.49;95035.69;5102369;28;20500;-79
2024/03/29 11:02:44;;;;;;;4.57;1.70;;;;;;;42.09;9.26;95023.59;5103587;28;20397;-78
2024/03/29 11:05:12;;;;;;;5.18;1.80;;;;;;;42.00;9.02;95025.38;5107589;28;20016;-78
2024/03/29 11:07:41;;;;;;;5.60;1.52;;;;;;;42.18;9.11;95025.53;5118277;28;20096;-78
2024/03/29 11:10:13;;;;;;;5.65;1.95;;;;;;;42.50;9.11;95026.31;5108836;28;20880;-79
2024/03/29 11:12:59;;;;;;;2.60;1.20;;;;;;;42.95;8.98;95022.53;5107146;28;20031;-79
2024/03/29 11:15:37;;;;;;;5.30;1.90;;;;;;;43.28;8.69;95018.94;5088572;28;20035;-79
2024/03/29 11:18:04;;;;;;;8.55;2.25;;;;;;;43.65;8.61;95021.28;5107232;28;20055;-79
2024/03/29 11:20:39;;;;;;;8.27;1.98;;;;;;;44.05;8.15;95024.38;5107179;28;20028;-80
2024/03/29 11:23:10;;;;;;;5.88;1.35;;;;;;;44.18;8.41;95022.69;5106574;28;20459;-79
2024/03/29 11:25:45;;;;;;;8.07;1.75;;;;;;;44.45;8.10;95015.78;5106927;28;20418;-79
2024/03/29 11:28:17;;;;;;;2.92;1.00;;;;;;;44.61;8.01;95018.56;5105511;28;20043;-80
2024/03/29 11:30:45;;;;;;;2.72;0.93;;;;;;;44.46;7.74;95015.13;5107316;28;20023;-79
2024/03/29 11:33:42;;;;;;;4.18;1.70;;;;;;;43.38;8.41;95012.88;5105381;28;20303;-78
2024/03/29 11:36:19;;;;;;;8.07;3.05;;;;;;;41.85;9.39;95005.88;5108048;28;20076;-78
2024/03/29 11:38:49;;;;;;;5.55;1.30;;;;;;;40.71;10.07;94997.91;5089843;28;20463;-78